createdAt,value
2023-03-13T00:01:47.103Z,6.60
2023-03-13T00:04:14.074Z,6.60
2023-03-13T00:06:42.295Z,6.60
2023-03-13T00:09:14.413Z,6.60
2023-03-13T00:11:41.615Z,6.60
2023-03-13T00:14:09.469Z,6.60
2023-03-13T00:16:37.562Z,6.50
2023-03-13T00:19:08.231Z,6.40
2023-03-13T00:21:40.965Z,6.40
2023-03-13T00:24:12.233Z,6.40
2023-03-13T00:26:39.121Z,6.40
2023-03-13T00:29:06.117Z,6.50
2023-03-13T00:31:33.106Z,6.50
2023-03-13T00:34:04.559Z,6.50
2023-03-13T00:36:35.417Z,6.40
2023-03-13T00:39:05.672Z,6.30
2023-03-13T00:41:34.057Z,6.30
2023-03-13T00:44:01.973Z,6.30
2023-03-13T00:46:30.917Z,6.20
2023-03-13T00:48:58.808Z,6.20
2023-03-13T00:51:28.523Z,6.20
2023-03-13T00:54:00.294Z,6.20
2023-03-13T00:56:28.636Z,6.10
2023-03-13T00:58:55.949Z,6.10
2023-03-13T01:01:45.298Z,6.20
2023-03-13T01:04:12.806Z,6.20
2023-03-13T01:06:42.862Z,6.20
2023-03-13T01:09:14.877Z,6.20
2023-03-13T01:11:44.645Z,6.20
2023-03-13T01:14:19.795Z,6.30
2023-03-13T01:16:47.388Z,6.40
2023-03-13T01:19:16.908Z,6.50
2023-03-13T01:21:45.438Z,6.50
2023-03-13T01:24:13.037Z,6.50
2023-03-13T01:26:40.183Z,6.50
2023-03-13T01:29:07.429Z,6.50
2023-03-13T01:31:36.500Z,6.50
2023-03-13T01:34:06.283Z,6.60
2023-03-13T01:36:37.021Z,6.60
2023-03-13T01:39:04.938Z,6.60
2023-03-13T01:41:32.473Z,6.50
2023-03-13T01:44:00.159Z,6.50
2023-03-13T01:46:30.193Z,6.50
2023-03-13T01:49:27.301Z,6.40
2023-03-13T01:52:12.800Z,6.30
2023-03-13T01:55:16.055Z,6.20
2023-03-13T01:57:53.228Z,6.20
2023-03-13T02:00:28.454Z,6.10
2023-03-13T02:03:03.966Z,6.10
2023-03-13T02:05:32.147Z,6.10
2023-03-13T02:08:15.506Z,6.20
2023-03-13T02:11:04.441Z,6.20
2023-03-13T02:13:31.932Z,6.20
2023-03-13T02:16:00.057Z,6.30
2023-03-13T02:18:27.227Z,6.30
2023-03-13T02:21:11.523Z,6.30
2023-03-13T02:24:01.215Z,6.30
2023-03-13T02:26:28.229Z,6.30
2023-03-13T02:28:55.287Z,6.30
2023-03-13T02:31:22.294Z,6.30
2023-03-13T02:33:49.301Z,6.30
2023-03-13T02:36:18.071Z,6.20
2023-03-13T02:39:01.255Z,6.30
2023-03-13T02:41:29.659Z,6.30
2023-03-13T02:43:56.546Z,6.30
2023-03-13T02:46:23.520Z,6.30
2023-03-13T02:48:55.701Z,6.30
2023-03-13T02:51:45.917Z,6.30
2023-03-13T02:54:22.172Z,6.20
2023-03-13T02:56:58.585Z,6.20
2023-03-13T02:59:26.386Z,6.10
2023-03-13T03:01:54.062Z,6.10
2023-03-13T03:04:24.863Z,6.10
2023-03-13T03:06:53.505Z,6.10
2023-03-13T03:09:23.336Z,6.10
2023-03-13T03:11:51.072Z,6.10
2023-03-13T03:14:18.382Z,6.10
2023-03-13T03:16:45.582Z,6.10
2023-03-13T03:19:12.600Z,6.10
2023-03-13T03:21:39.653Z,6.10
2023-03-13T03:24:07.743Z,6.10
2023-03-13T03:26:35.044Z,6.10
2023-03-13T03:29:01.927Z,6.10
2023-03-13T03:31:30.463Z,6.10
2023-03-13T03:33:57.888Z,6.00
2023-03-13T03:36:25.053Z,6.00
2023-03-13T03:38:53.417Z,6.00
2023-03-13T03:41:20.803Z,5.90
2023-03-13T03:43:48.210Z,5.90
2023-03-13T03:46:15.915Z,5.90
2023-03-13T03:48:42.989Z,5.90
2023-03-13T03:51:10.294Z,5.90
2023-03-13T03:53:37.206Z,5.90
2023-03-13T03:56:04.737Z,5.90
2023-03-13T03:58:31.725Z,6.00
2023-03-13T04:00:59.223Z,6.00
2023-03-13T04:03:26.950Z,6.00
2023-03-13T04:05:54.121Z,5.90
2023-03-13T04:08:21.134Z,5.90
2023-03-13T04:10:48.413Z,5.90
2023-03-13T04:13:15.347Z,5.90
2023-03-13T04:15:42.676Z,5.90
2023-03-13T04:18:10.027Z,5.90
2023-03-13T04:20:37.196Z,5.90
2023-03-13T04:23:04.191Z,5.90
2023-03-13T04:25:31.348Z,6.00
2023-03-13T04:27:58.220Z,6.00
2023-03-13T04:30:25.098Z,6.00
2023-03-13T04:32:52.073Z,6.00
2023-03-13T04:35:19.407Z,6.10
2023-03-13T04:37:46.456Z,6.10
2023-03-13T04:40:13.760Z,6.10
2023-03-13T04:42:42.311Z,6.10
2023-03-13T04:45:12.714Z,6.10
2023-03-13T04:47:40.096Z,6.10
2023-03-13T04:50:07.812Z,6.20
2023-03-13T04:52:34.669Z,6.20
2023-03-13T04:55:01.569Z,6.20
2023-03-13T04:57:28.493Z,6.20
2023-03-13T04:59:55.396Z,6.20
2023-03-13T05:02:22.744Z,6.20
2023-03-13T05:04:51.759Z,6.20
2023-03-13T05:07:19.093Z,6.20
2023-03-13T05:09:45.974Z,6.10
2023-03-13T05:12:12.920Z,6.10
2023-03-13T05:14:39.776Z,6.10
2023-03-13T05:17:06.826Z,6.10
2023-03-13T05:19:33.809Z,6.10
2023-03-13T05:22:00.827Z,6.10
2023-03-13T05:24:27.953Z,6.10
2023-03-13T05:26:54.983Z,6.20
2023-03-13T05:29:21.986Z,6.20
2023-03-13T05:31:48.889Z,6.30
2023-03-13T05:34:15.745Z,6.30
2023-03-13T05:36:42.663Z,6.30
2023-03-13T05:39:09.665Z,6.30
2023-03-13T05:41:36.547Z,6.30
2023-03-13T05:44:03.633Z,6.20
2023-03-13T05:46:30.910Z,6.30
2023-03-13T05:48:57.839Z,6.30
2023-03-13T05:51:24.777Z,6.30
2023-03-13T05:53:51.693Z,6.30
2023-03-13T05:56:18.563Z,6.30
2023-03-13T05:58:45.471Z,6.30
2023-03-13T06:01:14.659Z,6.40
2023-03-13T06:03:41.787Z,6.40
2023-03-13T06:06:08.812Z,6.40
2023-03-13T06:08:35.684Z,6.40
2023-03-13T06:11:03.532Z,6.40
2023-03-13T06:13:30.848Z,6.40
2023-03-13T06:15:59.390Z,6.40
2023-03-13T06:18:27.259Z,6.40
2023-03-13T06:21:01.305Z,6.40
2023-03-13T06:23:28.746Z,6.40
2023-03-13T06:25:56.649Z,6.50
2023-03-13T06:28:23.765Z,6.40
2023-03-13T06:30:50.634Z,6.40
2023-03-13T06:33:17.605Z,6.40
2023-03-13T06:35:55.844Z,6.40
2023-03-13T06:38:25.011Z,6.40
2023-03-13T06:40:51.966Z,6.50
2023-03-13T06:43:20.675Z,6.50
2023-03-13T06:45:47.652Z,6.50
2023-03-13T06:48:14.724Z,6.50
2023-03-13T06:50:43.018Z,6.50
2023-03-13T06:53:20.244Z,6.60
2023-03-13T06:55:48.900Z,6.60
2023-03-13T06:58:31.185Z,6.60
2023-03-13T07:01:06.410Z,6.70
2023-03-13T07:03:34.648Z,6.60
2023-03-13T07:06:01.788Z,6.70
2023-03-13T07:08:29.445Z,6.70
2023-03-13T07:11:03.450Z,6.70
2023-03-13T07:13:31.443Z,6.70
2023-03-13T07:16:05.818Z,6.80
2023-03-13T07:18:34.862Z,6.80
2023-03-13T07:21:05.162Z,6.90
2023-03-13T07:23:34.863Z,6.90
2023-03-13T07:26:11.685Z,7.00
2023-03-13T07:28:38.769Z,7.00
2023-03-13T07:31:13.211Z,7.00
2023-03-13T07:33:41.862Z,7.00
2023-03-13T07:36:11.396Z,7.00
2023-03-13T07:38:38.389Z,7.00
2023-03-13T07:41:06.332Z,7.10
2023-03-13T07:43:33.569Z,7.20
2023-03-13T07:46:06.169Z,7.30
2023-03-13T07:48:41.497Z,7.50
2023-03-13T07:51:25.274Z,7.70
2023-03-13T07:53:57.348Z,7.90
2023-03-13T07:56:24.832Z,8.00
2023-03-13T07:58:52.046Z,8.10
2023-03-13T08:01:30.375Z,8.30
2023-03-13T08:04:00.999Z,8.40
2023-03-13T08:06:35.369Z,8.50
2023-03-13T08:09:02.496Z,8.60
2023-03-13T08:11:29.852Z,8.80
2023-03-13T08:13:58.575Z,8.90
2023-03-13T08:16:34.126Z,9.10
2023-03-13T08:19:05.787Z,9.30
2023-03-13T08:21:37.571Z,9.40
2023-03-13T08:24:09.017Z,9.60
2023-03-13T08:26:41.854Z,9.80
2023-03-13T08:29:14.522Z,9.90
2023-03-13T08:31:48.843Z,10.10
2023-03-13T08:34:18.514Z,10.20
2023-03-13T08:36:46.511Z,10.30
2023-03-13T08:39:20.000Z,10.40
2023-03-13T08:41:47.857Z,10.50
2023-03-13T08:44:18.620Z,10.60
2023-03-13T08:46:46.213Z,10.70
2023-03-13T08:49:13.939Z,10.70
2023-03-13T08:51:41.085Z,10.70
2023-03-13T08:54:08.360Z,10.70
2023-03-13T08:56:35.313Z,10.60
2023-03-13T08:59:05.972Z,10.60
2023-03-13T09:03:53.045Z,10.70
2023-03-13T09:06:20.204Z,10.80
2023-03-13T09:08:48.220Z,10.90
2023-03-13T09:11:20.645Z,11.00
2023-03-13T09:13:50.818Z,11.10
2023-03-13T09:16:24.305Z,11.10
2023-03-13T09:18:52.957Z,11.10
2023-03-13T09:21:25.429Z,11.30
2023-03-13T09:23:52.684Z,11.40
2023-03-13T09:26:23.334Z,11.40
2023-03-13T09:28:52.370Z,11.50
2023-03-13T09:31:29.680Z,11.80
2023-03-13T09:33:57.109Z,12.10
2023-03-13T09:36:25.202Z,12.70
2023-03-13T09:38:58.892Z,13.30
2023-03-13T09:41:56.757Z,14.30
2023-03-13T09:44:42.529Z,15.20
2023-03-13T09:47:33.868Z,15.20
2023-03-13T09:50:16.816Z,15.50
2023-03-13T09:52:43.820Z,15.70
2023-03-13T09:55:37.857Z,16.10
2023-03-13T09:58:25.744Z,16.90
2023-03-13T10:01:04.766Z,16.60
2023-03-13T10:04:12.071Z,16.80
2023-03-13T10:06:43.836Z,17.20
2023-03-13T10:09:30.800Z,17.50
2023-03-13T10:12:24.586Z,17.10
2023-03-13T10:15:15.836Z,16.50
2023-03-13T10:17:42.828Z,16.20
2023-03-13T10:20:23.474Z,16.00
2023-03-13T10:23:41.156Z,15.90
2023-03-13T10:26:26.765Z,15.40
2023-03-13T10:28:56.602Z,15.10
2023-03-13T10:31:37.391Z,14.70
2023-03-13T10:34:12.617Z,14.70
2023-03-13T10:36:50.501Z,14.60
2023-03-13T10:39:23.170Z,14.40
2023-03-13T10:42:08.869Z,14.30
2023-03-13T10:44:35.848Z,14.20
2023-03-13T10:47:04.941Z,14.00
2023-03-13T10:49:33.881Z,13.90
2023-03-13T10:52:06.191Z,13.90
2023-03-13T10:54:39.471Z,13.70
2023-03-13T10:57:18.647Z,13.60
2023-03-13T10:59:53.051Z,13.60
2023-03-13T11:02:35.276Z,13.60
2023-03-13T11:05:23.033Z,13.60
2023-03-13T11:07:51.906Z,13.50
2023-03-13T11:10:32.425Z,13.50
2023-03-13T11:12:59.479Z,13.50
2023-03-13T11:15:43.060Z,13.40
2023-03-13T11:18:33.795Z,13.40
2023-03-13T11:21:17.774Z,13.30
2023-03-13T11:24:01.900Z,13.30
2023-03-13T11:27:01.971Z,13.30
2023-03-13T11:30:05.065Z,13.40
2023-03-13T11:33:00.270Z,13.40
2023-03-13T11:36:21.040Z,13.50
2023-03-13T11:39:34.824Z,13.90
2023-03-13T11:42:32.737Z,14.30
2023-03-13T11:45:11.819Z,14.40
2023-03-13T11:48:06.248Z,14.50
2023-03-13T11:50:58.619Z,14.80
2023-03-13T11:54:05.029Z,15.30
2023-03-13T11:56:57.466Z,15.60
2023-03-13T11:59:48.720Z,15.90
2023-03-13T12:02:45.294Z,16.00
2023-03-13T12:05:19.921Z,16.20
2023-03-13T12:08:06.303Z,16.30
2023-03-13T12:11:04.809Z,16.40
2023-03-13T12:14:00.912Z,16.40
2023-03-13T12:16:57.943Z,15.90
2023-03-13T12:19:50.890Z,15.50
2023-03-13T12:22:36.089Z,15.20
2023-03-13T12:25:25.312Z,15.00
2023-03-13T12:28:07.229Z,14.90
2023-03-13T12:30:45.145Z,14.80
2023-03-13T12:33:32.357Z,14.80
2023-03-13T12:36:26.101Z,14.90
2023-03-13T12:39:22.537Z,14.80
2023-03-13T12:42:45.794Z,14.90
2023-03-13T12:45:20.159Z,15.00
2023-03-13T12:48:44.958Z,15.40
2023-03-13T12:52:12.955Z,15.60
2023-03-13T12:55:26.764Z,16.10
2023-03-13T12:58:49.290Z,17.20
2023-03-13T13:01:56.501Z,17.90
2023-03-13T13:04:43.847Z,19.30
2023-03-13T13:07:34.346Z,19.70
2023-03-13T13:10:09.068Z,20.30
2023-03-13T13:12:45.943Z,21.00
2023-03-13T13:15:58.886Z,22.60
2023-03-13T13:18:33.109Z,24.20
2023-03-13T13:21:02.756Z,24.30
2023-03-13T13:23:41.813Z,24.20
2023-03-13T13:26:26.909Z,23.60
2023-03-13T13:28:56.258Z,23.90
2023-03-13T13:31:47.692Z,22.40
2023-03-13T13:34:34.382Z,23.90
2023-03-13T13:37:23.455Z,24.90
2023-03-13T13:39:54.095Z,24.80
2023-03-13T13:42:52.103Z,23.60
2023-03-13T13:45:38.013Z,23.40
2023-03-13T13:48:42.923Z,22.90
2023-03-13T13:51:10.936Z,21.80
2023-03-13T13:53:56.128Z,22.00
2023-03-13T13:56:28.979Z,22.30
2023-03-13T13:59:20.601Z,22.40
2023-03-13T14:02:30.466Z,22.80
2023-03-13T14:05:28.974Z,23.10
2023-03-13T14:08:40.111Z,24.00
2023-03-13T14:11:33.125Z,24.30
2023-03-13T14:14:21.807Z,25.90
2023-03-13T14:16:57.502Z,26.50
2023-03-13T14:19:44.765Z,26.00
2023-03-13T14:22:14.338Z,24.70
2023-03-13T14:24:42.386Z,23.60
2023-03-13T14:27:20.350Z,22.80
2023-03-13T14:30:09.258Z,22.40
2023-03-13T14:32:37.870Z,21.70
2023-03-13T14:35:08.632Z,21.10
2023-03-13T14:37:48.044Z,20.60
2023-03-13T14:40:30.170Z,20.50
2023-03-13T14:43:01.935Z,20.30
2023-03-13T14:45:39.336Z,20.20
2023-03-13T14:48:22.053Z,20.30
2023-03-13T14:51:12.354Z,20.40
2023-03-13T14:54:02.685Z,20.30
2023-03-13T14:56:45.069Z,20.10
2023-03-13T14:59:28.316Z,19.90
2023-03-13T15:02:18.734Z,19.80
2023-03-13T15:05:04.865Z,20.30
2023-03-13T15:07:48.414Z,20.70
2023-03-13T15:10:32.397Z,20.70
2023-03-13T15:12:59.647Z,20.50
2023-03-13T15:15:26.580Z,20.50
2023-03-13T15:17:53.501Z,20.80
2023-03-13T15:20:22.853Z,21.30
2023-03-13T15:22:49.697Z,21.20
2023-03-13T15:25:24.048Z,20.60
2023-03-13T15:27:51.381Z,19.80
2023-03-13T15:30:23.612Z,19.50
2023-03-13T15:32:51.864Z,19.30
2023-03-13T15:35:31.500Z,19.20
2023-03-13T15:38:02.051Z,19.00
2023-03-13T15:40:30.908Z,18.70
2023-03-13T15:42:59.154Z,18.60
2023-03-13T15:45:26.108Z,19.10
2023-03-13T15:47:53.631Z,19.70
2023-03-13T15:50:29.616Z,20.20
2023-03-13T15:52:58.576Z,20.40
2023-03-13T15:55:30.181Z,20.10
2023-03-13T15:57:57.155Z,19.80
2023-03-13T16:00:27.017Z,19.90
2023-03-13T16:02:53.934Z,19.80
2023-03-13T16:05:20.918Z,19.60
2023-03-13T16:07:47.789Z,19.20
2023-03-13T16:10:28.518Z,18.70
2023-03-13T16:12:55.766Z,18.80
2023-03-13T16:15:22.679Z,18.90
2023-03-13T16:17:50.338Z,19.00
2023-03-13T16:20:22.267Z,19.00
2023-03-13T16:22:51.162Z,18.60
2023-03-13T16:25:19.970Z,17.70
2023-03-13T16:27:46.851Z,17.40
2023-03-13T16:30:34.166Z,17.50
2023-03-13T16:33:01.559Z,17.20
2023-03-13T16:35:29.654Z,16.50
2023-03-13T16:37:58.329Z,15.90
2023-03-13T16:40:33.264Z,15.40
2023-03-13T16:43:01.180Z,15.60
2023-03-13T16:45:28.368Z,15.60
2023-03-13T16:47:55.237Z,15.40
2023-03-13T16:50:32.684Z,15.20
2023-03-13T16:52:59.641Z,14.80
2023-03-13T16:55:36.037Z,14.40
2023-03-13T16:58:04.036Z,14.10
2023-03-13T17:00:32.672Z,13.90
2023-03-13T17:03:01.239Z,13.60
2023-03-13T17:05:28.568Z,13.50
2023-03-13T17:07:55.840Z,13.30
2023-03-13T17:10:33.507Z,13.20
2023-03-13T17:13:00.543Z,13.10
2023-03-13T17:15:29.424Z,13.00
2023-03-13T17:17:56.776Z,12.90
2023-03-13T17:20:29.291Z,12.80
2023-03-13T17:22:57.194Z,12.70
2023-03-13T17:25:25.294Z,12.70
2023-03-13T17:27:53.305Z,12.70
2023-03-13T17:30:27.765Z,12.60
2023-03-13T17:32:54.957Z,12.50
2023-03-13T17:35:23.416Z,12.40
2023-03-13T17:37:50.538Z,12.40
2023-03-13T17:40:26.669Z,12.30
2023-03-13T17:42:53.712Z,12.30
2023-03-13T17:45:21.631Z,12.20
2023-03-13T17:47:50.146Z,12.10
2023-03-13T17:50:27.081Z,12.00
2023-03-13T17:52:55.322Z,11.90
2023-03-13T17:55:23.029Z,11.80
2023-03-13T17:57:49.996Z,11.80
2023-03-13T18:00:30.358Z,11.70
2023-03-13T18:02:59.269Z,11.70
2023-03-13T18:05:27.871Z,11.70
2023-03-13T18:07:57.651Z,11.80
2023-03-13T18:10:29.816Z,11.90
2023-03-13T18:12:57.924Z,11.90
2023-03-13T18:15:27.359Z,12.00
2023-03-13T18:17:54.533Z,12.00
2023-03-13T18:20:31.935Z,11.90
2023-03-13T18:23:00.485Z,11.90
2023-03-13T18:25:29.909Z,11.80
2023-03-13T18:27:57.116Z,11.80
2023-03-13T18:30:26.454Z,11.80
2023-03-13T18:32:53.839Z,11.70
2023-03-13T18:35:20.860Z,11.60
2023-03-13T18:37:48.651Z,11.60
2023-03-13T18:40:25.552Z,11.60
2023-03-13T18:42:52.566Z,11.70
2023-03-13T18:45:26.142Z,11.70
2023-03-13T18:47:54.288Z,11.70
2023-03-13T18:50:31.811Z,11.70
2023-03-13T18:53:00.534Z,11.70
2023-03-13T18:55:30.947Z,11.80
2023-03-13T18:57:58.087Z,12.00
2023-03-13T19:00:29.939Z,12.30
2023-03-13T19:02:57.823Z,12.50
2023-03-13T19:05:24.811Z,12.60
2023-03-13T19:07:51.876Z,12.60
2023-03-13T19:10:40.236Z,12.60
2023-03-13T19:13:07.190Z,12.60
2023-03-13T19:15:35.526Z,12.50
2023-03-13T19:18:03.709Z,12.40
2023-03-13T19:20:31.207Z,12.30
2023-03-13T19:23:00.548Z,12.20
2023-03-13T19:25:29.197Z,12.20
2023-03-13T19:27:56.044Z,12.20
2023-03-13T19:30:26.168Z,12.20
2023-03-13T19:32:53.240Z,12.10
2023-03-13T19:35:21.676Z,12.10
2023-03-13T19:37:49.247Z,12.10
2023-03-13T19:40:22.497Z,12.00
2023-03-13T19:42:49.552Z,11.90
2023-03-13T19:45:17.595Z,11.90
2023-03-13T19:47:45.193Z,11.90
2023-03-13T19:50:24.108Z,11.80
2023-03-13T19:52:51.045Z,11.80
2023-03-13T19:55:17.984Z,11.80
2023-03-13T19:57:45.068Z,11.80
2023-03-13T20:00:27.934Z,11.80
2023-03-13T20:02:55.553Z,11.90
2023-03-13T20:05:24.173Z,11.90
2023-03-13T20:07:53.141Z,11.80
2023-03-13T20:10:22.248Z,11.90
2023-03-13T20:12:49.246Z,12.10
2023-03-13T20:15:16.700Z,12.30
2023-03-13T20:17:43.570Z,12.50
2023-03-13T20:20:11.392Z,12.70
2023-03-13T20:22:38.283Z,12.80
2023-03-13T20:25:05.768Z,12.90
2023-03-13T20:27:32.689Z,12.90
2023-03-13T20:30:00.078Z,13.00
2023-03-13T20:32:27.849Z,13.20
2023-03-13T20:34:54.726Z,12.70
2023-03-13T20:37:21.881Z,11.70
2023-03-13T20:39:48.835Z,11.00
2023-03-13T20:42:16.381Z,10.50
2023-03-13T20:44:43.240Z,10.20
2023-03-13T20:47:10.148Z,10.10
2023-03-13T20:49:37.911Z,10.10
2023-03-13T20:52:04.991Z,10.00
2023-03-13T20:54:31.916Z,9.90
2023-03-13T20:56:58.938Z,9.90
2023-03-13T20:59:26.047Z,9.90
2023-03-13T21:01:52.956Z,9.80
2023-03-13T21:04:19.844Z,9.80
2023-03-13T21:06:46.814Z,9.70
2023-03-13T21:09:13.717Z,9.70
2023-03-13T21:11:40.599Z,9.80
2023-03-13T21:14:07.477Z,9.80
2023-03-13T21:16:34.426Z,9.80
2023-03-13T21:19:01.506Z,9.80
2023-03-13T21:21:29.415Z,9.80
2023-03-13T21:23:56.373Z,9.80
2023-03-13T21:26:23.336Z,9.90
2023-03-13T21:28:51.852Z,9.90
2023-03-13T21:31:19.783Z,9.90
2023-03-13T21:33:49.083Z,9.90
2023-03-13T21:36:22.817Z,9.90
2023-03-13T21:38:51.037Z,9.90
2023-03-13T21:41:22.163Z,9.90
2023-03-13T21:43:49.343Z,9.90
2023-03-13T21:46:19.693Z,9.90
2023-03-13T21:48:47.065Z,9.90
2023-03-13T21:51:14.518Z,9.90
2023-03-13T21:53:42.046Z,9.90
2023-03-13T21:56:15.078Z,9.90
2023-03-13T21:58:43.664Z,9.90
2023-03-13T22:01:11.432Z,9.80
2023-03-13T22:03:39.084Z,9.60
2023-03-13T22:06:14.541Z,9.40
2023-03-13T22:08:43.132Z,9.30
2023-03-13T22:11:12.390Z,9.20
2023-03-13T22:13:39.820Z,9.10
2023-03-13T22:16:08.036Z,9.00
2023-03-13T22:18:34.901Z,9.00
2023-03-13T22:21:01.779Z,8.90
2023-03-13T22:23:28.656Z,8.90
2023-03-13T22:25:58.359Z,8.90
2023-03-13T22:28:26.493Z,8.80
2023-03-13T22:30:53.387Z,8.80
2023-03-13T22:33:20.462Z,8.80
2023-03-13T22:35:53.124Z,8.80
2023-03-13T22:38:21.561Z,8.80
2023-03-13T22:41:03.742Z,8.80
2023-03-13T22:43:31.432Z,8.90
2023-03-13T22:45:59.694Z,8.90
2023-03-13T22:48:27.223Z,8.90
2023-03-13T22:51:14.307Z,8.90
2023-03-13T22:53:42.557Z,8.80
2023-03-13T22:56:12.354Z,8.70
2023-03-13T22:58:41.842Z,8.60
2023-03-13T23:01:17.703Z,8.50
2023-03-13T23:03:45.733Z,8.50
2023-03-13T23:06:22.617Z,8.50
2023-03-13T23:08:50.323Z,8.50
2023-03-13T23:11:19.014Z,8.50
2023-03-13T23:13:45.887Z,8.50
2023-03-13T23:16:14.051Z,8.50
2023-03-13T23:18:41.777Z,8.50
2023-03-13T23:21:15.108Z,8.40
2023-03-13T23:23:43.168Z,8.40
2023-03-13T23:26:15.792Z,8.20
2023-03-13T23:28:43.007Z,8.10
2023-03-13T23:31:17.939Z,8.10
2023-03-13T23:33:46.603Z,8.10
2023-03-13T23:36:19.226Z,8.00
2023-03-13T23:38:51.998Z,8.00
2023-03-13T23:41:20.920Z,7.90
2023-03-13T23:43:47.827Z,7.90
2023-03-13T23:46:26.898Z,7.90
2023-03-13T23:48:56.677Z,7.80
2023-03-13T23:51:25.631Z,7.80
2023-03-13T23:53:52.882Z,7.80
2023-03-13T23:56:19.846Z,7.80
2023-03-13T23:58:46.756Z,7.70
